sensor_id;sensor_type;location;lat;lon;timestamp;P1;durP1;ratioP1;P2;durP2;ratioP2
18695;SDS011;22617;43.690;27.956;2023-02-01T00:04:54;30.73;;;13.30;;
18695;SDS011;22617;43.690;27.956;2023-02-01T00:09:58;30.10;;;13.17;;
18695;SDS011;22617;43.690;27.956;2023-02-01T00:15:03;28.43;;;12.30;;
18695;SDS011;22617;43.690;27.956;2023-02-01T00:20:08;32.60;;;13.17;;
18695;SDS011;22617;43.690;27.956;2023-02-01T00:25:13;30.80;;;12.80;;
18695;SDS011;22617;43.690;27.956;2023-02-01T00:30:18;30.93;;;12.50;;
18695;SDS011;22617;43.690;27.956;2023-02-01T00:35:22;31.30;;;13.37;;
18695;SDS011;22617;43.690;27.956;2023-02-01T00:40:25;29.60;;;12.87;;
18695;SDS011;22617;43.690;27.956;2023-02-01T00:45:30;28.97;;;12.43;;
18695;SDS011;22617;43.690;27.956;2023-02-01T00:50:34;32.63;;;13.43;;
18695;SDS011;22617;43.690;27.956;2023-02-01T00:55:37;35.27;;;13.67;;
18695;SDS011;22617;43.690;27.956;2023-02-01T01:00:42;31.63;;;13.20;;
18695;SDS011;22617;43.690;27.956;2023-02-01T01:05:46;30.03;;;13.27;;
18695;SDS011;22617;43.690;27.956;2023-02-01T01:10:50;29.00;;;12.47;;
18695;SDS011;22617;43.690;27.956;2023-02-01T01:15:55;30.87;;;12.47;;
18695;SDS011;22617;43.690;27.956;2023-02-01T01:20:59;32.80;;;13.40;;
18695;SDS011;22617;43.690;27.956;2023-02-01T01:26:07;34.80;;;14.00;;
18695;SDS011;22617;43.690;27.956;2023-02-01T01:31:14;31.73;;;13.80;;
18695;SDS011;22617;43.690;27.956;2023-02-01T01:36:19;31.97;;;13.17;;
18695;SDS011;22617;43.690;27.956;2023-02-01T01:41:24;32.17;;;13.07;;
18695;SDS011;22617;43.690;27.956;2023-02-01T01:46:33;33.00;;;12.73;;
18695;SDS011;22617;43.690;27.956;2023-02-01T01:51:40;31.80;;;13.80;;
18695;SDS011;22617;43.690;27.956;2023-02-01T01:56:48;32.33;;;12.83;;
18695;SDS011;22617;43.690;27.956;2023-02-01T02:01:56;30.90;;;12.83;;
18695;SDS011;22617;43.690;27.956;2023-02-01T02:06:59;32.43;;;13.33;;
18695;SDS011;22617;43.690;27.956;2023-02-01T02:12:06;29.83;;;13.27;;
18695;SDS011;22617;43.690;27.956;2023-02-01T02:17:18;31.20;;;13.47;;
18695;SDS011;22617;43.690;27.956;2023-02-01T02:22:48;32.80;;;13.27;;
18695;SDS011;22617;43.690;27.956;2023-02-01T02:28:12;30.37;;;13.17;;
18695;SDS011;22617;43.690;27.956;2023-02-01T02:33:41;33.10;;;12.57;;
18695;SDS011;22617;43.690;27.956;2023-02-01T02:38:52;27.97;;;13.60;;
18695;SDS011;22617;43.690;27.956;2023-02-01T02:44:05;30.97;;;13.20;;
18695;SDS011;22617;43.690;27.956;2023-02-01T02:49:34;29.37;;;13.07;;
18695;SDS011;22617;43.690;27.956;2023-02-01T02:54:43;30.37;;;12.90;;
18695;SDS011;22617;43.690;27.956;2023-02-01T02:59:52;34.30;;;13.93;;
18695;SDS011;22617;43.690;27.956;2023-02-01T03:05:15;30.47;;;14.10;;
18695;SDS011;22617;43.690;27.956;2023-02-01T03:10:24;33.97;;;14.00;;
18695;SDS011;22617;43.690;27.956;2023-02-01T03:15:35;33.07;;;13.87;;
18695;SDS011;22617;43.690;27.956;2023-02-01T03:20:43;31.37;;;12.90;;
18695;SDS011;22617;43.690;27.956;2023-02-01T03:25:49;30.80;;;13.73;;
18695;SDS011;22617;43.690;27.956;2023-02-01T03:30:57;30.57;;;13.63;;
18695;SDS011;22617;43.690;27.956;2023-02-01T03:36:12;34.33;;;14.10;;
18695;SDS011;22617;43.690;27.956;2023-02-01T03:41:23;31.23;;;13.67;;
18695;SDS011;22617;43.690;27.956;2023-02-01T03:46:33;33.70;;;13.93;;
18695;SDS011;22617;43.690;27.956;2023-02-01T03:51:43;38.83;;;15.20;;
18695;SDS011;22617;43.690;27.956;2023-02-01T03:56:47;32.87;;;14.60;;
18695;SDS011;22617;43.690;27.956;2023-02-01T04:01:54;32.60;;;15.27;;
18695;SDS011;22617;43.690;27.956;2023-02-01T04:07:00;35.07;;;15.50;;
18695;SDS011;22617;43.690;27.956;2023-02-01T04:12:03;33.73;;;14.87;;
18695;SDS011;22617;43.690;27.956;2023-02-01T04:17:07;35.07;;;15.10;;
18695;SDS011;22617;43.690;27.956;2023-02-01T04:22:12;31.33;;;13.53;;
18695;SDS011;22617;43.690;27.956;2023-02-01T04:27:14;35.50;;;14.57;;
18695;SDS011;22617;43.690;27.956;2023-02-01T04:32:18;33.30;;;14.33;;
18695;SDS011;22617;43.690;27.956;2023-02-01T04:37:24;31.17;;;13.80;;
18695;SDS011;22617;43.690;27.956;2023-02-01T04:42:27;29.07;;;13.67;;
18695;SDS011;22617;43.690;27.956;2023-02-01T04:47:31;32.20;;;13.97;;
18695;SDS011;22617;43.690;27.956;2023-02-01T04:52:36;32.30;;;13.93;;
18695;SDS011;22617;43.690;27.956;2023-02-01T04:57:40;34.00;;;13.57;;
18695;SDS011;22617;43.690;27.956;2023-02-01T05:02:43;33.90;;;14.17;;
18695;SDS011;22617;43.690;27.956;2023-02-01T05:07:48;32.97;;;14.53;;
18695;SDS011;22617;43.690;27.956;2023-02-01T05:12:52;32.80;;;14.50;;
18695;SDS011;22617;43.690;27.956;2023-02-01T05:18:13;30.73;;;12.97;;
18695;SDS011;22617;43.690;27.956;2023-02-01T05:23:17;30.50;;;13.13;;
18695;SDS011;22617;43.690;27.956;2023-02-01T05:28:21;27.93;;;12.20;;
18695;SDS011;22617;43.690;27.956;2023-02-01T05:33:24;32.53;;;13.57;;
18695;SDS011;22617;43.690;27.956;2023-02-01T05:38:29;26.70;;;11.93;;
18695;SDS011;22617;43.690;27.956;2023-02-01T05:43:33;32.63;;;13.33;;
18695;SDS011;22617;43.690;27.956;2023-02-01T05:48:36;29.43;;;12.67;;
18695;SDS011;22617;43.690;27.956;2023-02-01T05:53:42;32.43;;;13.10;;
18695;SDS011;22617;43.690;27.956;2023-02-01T05:58:46;32.40;;;12.00;;
18695;SDS011;22617;43.690;27.956;2023-02-01T06:03:49;28.97;;;12.10;;
18695;SDS011;22617;43.690;27.956;2023-02-01T06:08:55;29.47;;;12.80;;
18695;SDS011;22617;43.690;27.956;2023-02-01T06:13:58;30.27;;;12.53;;
18695;SDS011;22617;43.690;27.956;2023-02-01T06:19:02;25.73;;;11.13;;
18695;SDS011;22617;43.690;27.956;2023-02-01T06:24:08;23.60;;;10.80;;
18695;SDS011;22617;43.690;27.956;2023-02-01T06:29:12;26.77;;;10.80;;
18695;SDS011;22617;43.690;27.956;2023-02-01T06:34:16;22.00;;;10.13;;
18695;SDS011;22617;43.690;27.956;2023-02-01T06:39:24;24.10;;;10.73;;
18695;SDS011;22617;43.690;27.956;2023-02-01T06:44:29;23.33;;;10.90;;
18695;SDS011;22617;43.690;27.956;2023-02-01T06:49:32;21.80;;;10.10;;
18695;SDS011;22617;43.690;27.956;2023-02-01T06:54:37;19.50;;;9.50;;
18695;SDS011;22617;43.690;27.956;2023-02-01T06:59:41;20.83;;;9.47;;
18695;SDS011;22617;43.690;27.956;2023-02-01T07:04:44;20.20;;;8.90;;
18695;SDS011;22617;43.690;27.956;2023-02-01T07:09:49;19.30;;;8.93;;
18695;SDS011;22617;43.690;27.956;2023-02-01T07:14:52;21.50;;;10.17;;
18695;SDS011;22617;43.690;27.956;2023-02-01T07:19:56;19.00;;;9.40;;
18695;SDS011;22617;43.690;27.956;2023-02-01T07:25:03;20.03;;;9.43;;
18695;SDS011;22617;43.690;27.956;2023-02-01T07:30:08;21.83;;;9.57;;
18695;SDS011;22617;43.690;27.956;2023-02-01T07:35:12;20.23;;;9.57;;
18695;SDS011;22617;43.690;27.956;2023-02-01T07:40:18;17.30;;;9.23;;
18695;SDS011;22617;43.690;27.956;2023-02-01T07:45:26;20.20;;;9.17;;
18695;SDS011;22617;43.690;27.956;2023-02-01T07:50:30;19.10;;;9.27;;
18695;SDS011;22617;43.690;27.956;2023-02-01T07:55:35;16.73;;;8.93;;
18695;SDS011;22617;43.690;27.956;2023-02-01T08:00:40;17.70;;;9.03;;
18695;SDS011;22617;43.690;27.956;2023-02-01T08:06:01;19.50;;;9.53;;
18695;SDS011;22617;43.690;27.956;2023-02-01T08:11:06;16.77;;;8.27;;
18695;SDS011;22617;43.690;27.956;2023-02-01T08:16:10;18.43;;;8.70;;
18695;SDS011;22617;43.690;27.956;2023-02-01T08:21:15;18.20;;;8.93;;
18695;SDS011;22617;43.690;27.956;2023-02-01T08:26:23;17.17;;;9.53;;
18695;SDS011;22617;43.690;27.956;2023-02-01T08:31:28;17.33;;;8.70;;
18695;SDS011;22617;43.690;27.956;2023-02-01T08:36:33;18.17;;;9.20;;
18695;SDS011;22617;43.690;27.956;2023-02-01T08:41:38;17.60;;;9.00;;
18695;SDS011;22617;43.690;27.956;2023-02-01T08:46:41;19.10;;;10.30;;
18695;SDS011;22617;43.690;27.956;2023-02-01T08:51:45;16.47;;;9.17;;
18695;SDS011;22617;43.690;27.956;2023-02-01T08:56:49;14.23;;;8.30;;
18695;SDS011;22617;43.690;27.956;2023-02-01T09:01:55;18.07;;;9.00;;
18695;SDS011;22617;43.690;27.956;2023-02-01T09:06:58;16.47;;;9.07;;
18695;SDS011;22617;43.690;27.956;2023-02-01T09:12:03;16.97;;;8.50;;
18695;SDS011;22617;43.690;27.956;2023-02-01T09:17:08;14.40;;;8.10;;
18695;SDS011;22617;43.690;27.956;2023-02-01T09:22:11;14.43;;;8.67;;
18695;SDS011;22617;43.690;27.956;2023-02-01T09:27:19;15.97;;;9.10;;
18695;SDS011;22617;43.690;27.956;2023-02-01T09:32:22;14.83;;;8.07;;
18695;SDS011;22617;43.690;27.956;2023-02-01T09:37:26;14.37;;;7.60;;
18695;SDS011;22617;43.690;27.956;2023-02-01T09:42:41;12.80;;;7.40;;
18695;SDS011;22617;43.690;27.956;2023-02-01T09:47:57;15.00;;;7.67;;
18695;SDS011;22617;43.690;27.956;2023-02-01T09:53:06;11.37;;;6.80;;
18695;SDS011;22617;43.690;27.956;2023-02-01T09:58:17;11.97;;;7.67;;
18695;SDS011;22617;43.690;27.956;2023-02-01T10:03:27;11.33;;;6.13;;
18695;SDS011;22617;43.690;27.956;2023-02-01T10:08:34;10.00;;;6.37;;
18695;SDS011;22617;43.690;27.956;2023-02-01T10:13:53;9.97;;;6.30;;
18695;SDS011;22617;43.690;27.956;2023-02-01T10:19:06;10.87;;;5.87;;
18695;SDS011;22617;43.690;27.956;2023-02-01T10:24:34;8.70;;;5.97;;
18695;SDS011;22617;43.690;27.956;2023-02-01T10:29:43;8.37;;;5.37;;
18695;SDS011;22617;43.690;27.956;2023-02-01T10:34:51;10.37;;;5.30;;
18695;SDS011;22617;43.690;27.956;2023-02-01T10:39:57;9.90;;;6.07;;
18695;SDS011;22617;43.690;27.956;2023-02-01T10:45:06;8.07;;;5.47;;
18695;SDS011;22617;43.690;27.956;2023-02-01T10:50:22;8.83;;;5.07;;
18695;SDS011;22617;43.690;27.956;2023-02-01T10:55:38;9.13;;;4.57;;
18695;SDS011;22617;43.690;27.956;2023-02-01T11:00:45;6.50;;;4.53;;
18695;SDS011;22617;43.690;27.956;2023-02-01T11:05:51;10.13;;;4.57;;
18695;SDS011;22617;43.690;27.956;2023-02-01T11:10:58;7.10;;;4.13;;
18695;SDS011;22617;43.690;27.956;2023-02-01T11:16:05;8.60;;;4.60;;
18695;SDS011;22617;43.690;27.956;2023-02-01T11:21:10;6.77;;;3.53;;
18695;SDS011;22617;43.690;27.956;2023-02-01T11:26:15;6.20;;;3.80;;
18695;SDS011;22617;43.690;27.956;2023-02-01T11:31:27;6.07;;;4.10;;
18695;SDS011;22617;43.690;27.956;2023-02-01T11:36:32;6.87;;;3.60;;
18695;SDS011;22617;43.690;27.956;2023-02-01T11:41:42;6.70;;;2.67;;
18695;SDS011;22617;43.690;27.956;2023-02-01T11:46:48;5.67;;;2.87;;
18695;SDS011;22617;43.690;27.956;2023-02-01T11:51:59;8.70;;;3.00;;
18695;SDS011;22617;43.690;27.956;2023-02-01T11:57:17;4.13;;;2.37;;
18695;SDS011;22617;43.690;27.956;2023-02-01T12:02:47;6.83;;;2.67;;
18695;SDS011;22617;43.690;27.956;2023-02-01T12:08:07;4.10;;;2.90;;
18695;SDS011;22617;43.690;27.956;2023-02-01T12:13:27;8.17;;;3.33;;
18695;SDS011;22617;43.690;27.956;2023-02-01T12:18:48;5.20;;;3.07;;
18695;SDS011;22617;43.690;27.956;2023-02-01T12:24:25;6.23;;;3.03;;
18695;SDS011;22617;43.690;27.956;2023-02-01T12:29:51;5.50;;;3.37;;
18695;SDS011;22617;43.690;27.956;2023-02-01T12:35:12;4.33;;;3.13;;
18695;SDS011;22617;43.690;27.956;2023-02-01T12:40:28;8.33;;;3.37;;
18695;SDS011;22617;43.690;27.956;2023-02-01T12:45:43;5.43;;;3.23;;
18695;SDS011;22617;43.690;27.956;2023-02-01T12:50:51;7.00;;;3.57;;
18695;SDS011;22617;43.690;27.956;2023-02-01T12:56:01;6.00;;;3.43;;
18695;SDS011;22617;43.690;27.956;2023-02-01T13:01:09;6.57;;;3.57;;
18695;SDS011;22617;43.690;27.956;2023-02-01T13:06:19;7.90;;;3.73;;
18695;SDS011;22617;43.690;27.956;2023-02-01T13:11:26;5.70;;;3.07;;
18695;SDS011;22617;43.690;27.956;2023-02-01T13:16:34;6.77;;;3.80;;
18695;SDS011;22617;43.690;27.956;2023-02-01T13:21:44;5.90;;;3.37;;
18695;SDS011;22617;43.690;27.956;2023-02-01T13:26:52;6.33;;;3.73;;
18695;SDS011;22617;43.690;27.956;2023-02-01T13:32:00;7.57;;;4.00;;
18695;SDS011;22617;43.690;27.956;2023-02-01T13:37:23;5.40;;;3.60;;
18695;SDS011;22617;43.690;27.956;2023-02-01T13:42:41;6.07;;;3.97;;
18695;SDS011;22617;43.690;27.956;2023-02-01T13:47:50;6.77;;;3.40;;
18695;SDS011;22617;43.690;27.956;2023-02-01T13:52:57;8.07;;;4.13;;
18695;SDS011;22617;43.690;27.956;2023-02-01T13:58:04;6.50;;;4.10;;
18695;SDS011;22617;43.690;27.956;2023-02-01T14:03:15;6.57;;;3.87;;
18695;SDS011;22617;43.690;27.956;2023-02-01T14:08:35;8.70;;;4.37;;
18695;SDS011;22617;43.690;27.956;2023-02-01T14:13:41;10.03;;;4.50;;
18695;SDS011;22617;43.690;27.956;2023-02-01T14:24:15;8.83;;;5.00;;
18695;SDS011;22617;43.690;27.956;2023-02-01T14:29:26;7.33;;;4.67;;
18695;SDS011;22617;43.690;27.956;2023-02-01T14:34:37;11.10;;;5.67;;
18695;SDS011;22617;43.690;27.956;2023-02-01T14:39:56;7.67;;;4.90;;
18695;SDS011;22617;43.690;27.956;2023-02-01T14:50:46;9.27;;;5.40;;
18695;SDS011;22617;43.690;27.956;2023-02-01T14:55:53;8.10;;;5.07;;
18695;SDS011;22617;43.690;27.956;2023-02-01T15:01:04;9.30;;;5.47;;
18695;SDS011;22617;43.690;27.956;2023-02-01T15:06:16;9.47;;;4.93;;
18695;SDS011;22617;43.690;27.956;2023-02-01T15:11:27;10.57;;;6.03;;
18695;SDS011;22617;43.690;27.956;2023-02-01T15:16:31;8.83;;;5.13;;
18695;SDS011;22617;43.690;27.956;2023-02-01T15:21:42;8.23;;;5.00;;
18695;SDS011;22617;43.690;27.956;2023-02-01T15:26:49;9.03;;;5.03;;
18695;SDS011;22617;43.690;27.956;2023-02-01T15:31:53;8.20;;;4.60;;
18695;SDS011;22617;43.690;27.956;2023-02-01T15:37:03;8.27;;;4.70;;
18695;SDS011;22617;43.690;27.956;2023-02-01T15:42:12;9.63;;;5.10;;
18695;SDS011;22617;43.690;27.956;2023-02-01T15:47:23;8.93;;;4.70;;
18695;SDS011;22617;43.690;27.956;2023-02-01T15:52:31;12.07;;;5.17;;
18695;SDS011;22617;43.690;27.956;2023-02-01T15:57:40;12.87;;;5.70;;
18695;SDS011;22617;43.690;27.956;2023-02-01T16:02:50;9.40;;;5.43;;
18695;SDS011;22617;43.690;27.956;2023-02-01T16:07:55;8.43;;;5.27;;
18695;SDS011;22617;43.690;27.956;2023-02-01T16:13:06;10.23;;;5.63;;
18695;SDS011;22617;43.690;27.956;2023-02-01T16:18:11;8.77;;;5.17;;
18695;SDS011;22617;43.690;27.956;2023-02-01T16:23:19;11.70;;;5.77;;
18695;SDS011;22617;43.690;27.956;2023-02-01T16:28:24;10.77;;;5.17;;
18695;SDS011;22617;43.690;27.956;2023-02-01T16:33:28;11.00;;;6.00;;
18695;SDS011;22617;43.690;27.956;2023-02-01T16:38:31;10.57;;;6.13;;
18695;SDS011;22617;43.690;27.956;2023-02-01T16:43:36;10.93;;;5.80;;
18695;SDS011;22617;43.690;27.956;2023-02-01T16:48:41;12.20;;;5.60;;
18695;SDS011;22617;43.690;27.956;2023-02-01T16:53:48;10.70;;;6.00;;
18695;SDS011;22617;43.690;27.956;2023-02-01T16:58:56;9.13;;;5.63;;
18695;SDS011;22617;43.690;27.956;2023-02-01T17:04:00;11.03;;;5.87;;
18695;SDS011;22617;43.690;27.956;2023-02-01T17:09:04;8.57;;;5.53;;
18695;SDS011;22617;43.690;27.956;2023-02-01T17:14:15;12.33;;;6.37;;
18695;SDS011;22617;43.690;27.956;2023-02-01T17:19:21;11.30;;;7.03;;
18695;SDS011;22617;43.690;27.956;2023-02-01T17:24:27;14.50;;;6.73;;
18695;SDS011;22617;43.690;27.956;2023-02-01T17:29:48;12.30;;;6.80;;
18695;SDS011;22617;43.690;27.956;2023-02-01T17:34:52;14.97;;;6.40;;
18695;SDS011;22617;43.690;27.956;2023-02-01T17:39:56;11.47;;;6.07;;
18695;SDS011;22617;43.690;27.956;2023-02-01T17:45:09;11.20;;;6.50;;
18695;SDS011;22617;43.690;27.956;2023-02-01T17:50:23;10.17;;;5.73;;
18695;SDS011;22617;43.690;27.956;2023-02-01T17:55:31;11.60;;;5.97;;
18695;SDS011;22617;43.690;27.956;2023-02-01T18:00:38;11.33;;;6.30;;
18695;SDS011;22617;43.690;27.956;2023-02-01T18:05:42;9.27;;;5.30;;
18695;SDS011;22617;43.690;27.956;2023-02-01T18:10:52;15.70;;;6.37;;
18695;SDS011;22617;43.690;27.956;2023-02-01T18:16:01;11.23;;;6.07;;
18695;SDS011;22617;43.690;27.956;2023-02-01T18:21:05;13.23;;;6.13;;
18695;SDS011;22617;43.690;27.956;2023-02-01T18:26:10;9.77;;;5.20;;
18695;SDS011;22617;43.690;27.956;2023-02-01T18:31:18;8.80;;;5.23;;
18695;SDS011;22617;43.690;27.956;2023-02-01T18:36:25;14.00;;;6.77;;
18695;SDS011;22617;43.690;27.956;2023-02-01T18:41:31;11.50;;;5.73;;
18695;SDS011;22617;43.690;27.956;2023-02-01T18:46:36;11.10;;;5.63;;
18695;SDS011;22617;43.690;27.956;2023-02-01T18:51:40;12.73;;;5.87;;
18695;SDS011;22617;43.690;27.956;2023-02-01T18:56:45;10.43;;;6.00;;
18695;SDS011;22617;43.690;27.956;2023-02-01T19:01:50;10.20;;;5.50;;
18695;SDS011;22617;43.690;27.956;2023-02-01T19:06:53;9.57;;;5.57;;
18695;SDS011;22617;43.690;27.956;2023-02-01T19:11:57;13.03;;;6.00;;
18695;SDS011;22617;43.690;27.956;2023-02-01T19:17:02;9.70;;;5.83;;
18695;SDS011;22617;43.690;27.956;2023-02-01T19:22:05;10.30;;;5.37;;
18695;SDS011;22617;43.690;27.956;2023-02-01T19:27:09;11.67;;;5.97;;
18695;SDS011;22617;43.690;27.956;2023-02-01T19:32:14;14.73;;;6.43;;
18695;SDS011;22617;43.690;27.956;2023-02-01T19:37:17;15.23;;;6.40;;
18695;SDS011;22617;43.690;27.956;2023-02-01T19:42:21;11.37;;;5.90;;
18695;SDS011;22617;43.690;27.956;2023-02-01T19:47:27;11.40;;;6.23;;
18695;SDS011;22617;43.690;27.956;2023-02-01T19:52:31;8.90;;;5.50;;
18695;SDS011;22617;43.690;27.956;2023-02-01T19:57:34;11.27;;;5.80;;
18695;SDS011;22617;43.690;27.956;2023-02-01T20:02:39;11.90;;;5.80;;
18695;SDS011;22617;43.690;27.956;2023-02-01T20:07:43;10.90;;;5.57;;
18695;SDS011;22617;43.690;27.956;2023-02-01T20:12:47;11.90;;;5.60;;
18695;SDS011;22617;43.690;27.956;2023-02-01T20:17:52;10.77;;;5.80;;
18695;SDS011;22617;43.690;27.956;2023-02-01T20:22:55;10.47;;;5.70;;
18695;SDS011;22617;43.690;27.956;2023-02-01T20:27:59;10.80;;;5.17;;
18695;SDS011;22617;43.690;27.956;2023-02-01T20:33:04;10.87;;;5.37;;
18695;SDS011;22617;43.690;27.956;2023-02-01T20:38:14;9.17;;;5.50;;
18695;SDS011;22617;43.690;27.956;2023-02-01T20:43:17;9.73;;;5.27;;
18695;SDS011;22617;43.690;27.956;2023-02-01T20:48:22;11.63;;;5.67;;
18695;SDS011;22617;43.690;27.956;2023-02-01T20:53:26;9.83;;;5.53;;
18695;SDS011;22617;43.690;27.956;2023-02-01T20:58:29;10.60;;;5.10;;
18695;SDS011;22617;43.690;27.956;2023-02-01T21:03:35;9.93;;;5.57;;
18695;SDS011;22617;43.690;27.956;2023-02-01T21:08:38;11.40;;;5.77;;
18695;SDS011;22617;43.690;27.956;2023-02-01T21:13:43;8.83;;;5.30;;
18695;SDS011;22617;43.690;27.956;2023-02-01T21:18:52;11.97;;;6.10;;
18695;SDS011;22617;43.690;27.956;2023-02-01T21:23:56;10.43;;;5.90;;
18695;SDS011;22617;43.690;27.956;2023-02-01T21:29:01;14.43;;;6.07;;
18695;SDS011;22617;43.690;27.956;2023-02-01T21:34:06;8.97;;;5.60;;
18695;SDS011;22617;43.690;27.956;2023-02-01T21:39:10;11.67;;;5.53;;
18695;SDS011;22617;43.690;27.956;2023-02-01T21:44:14;10.30;;;5.83;;
18695;SDS011;22617;43.690;27.956;2023-02-01T21:49:19;10.67;;;6.00;;
18695;SDS011;22617;43.690;27.956;2023-02-01T21:54:23;12.77;;;5.70;;
18695;SDS011;22617;43.690;27.956;2023-02-01T21:59:26;12.30;;;6.47;;
18695;SDS011;22617;43.690;27.956;2023-02-01T22:04:31;11.93;;;6.53;;
18695;SDS011;22617;43.690;27.956;2023-02-01T22:09:34;8.70;;;5.60;;
18695;SDS011;22617;43.690;27.956;2023-02-01T22:14:39;10.50;;;5.63;;
18695;SDS011;22617;43.690;27.956;2023-02-01T22:19:46;13.07;;;5.50;;
18695;SDS011;22617;43.690;27.956;2023-02-01T22:24:50;11.40;;;6.23;;
18695;SDS011;22617;43.690;27.956;2023-02-01T22:29:55;12.07;;;5.93;;
18695;SDS011;22617;43.690;27.956;2023-02-01T22:35:00;10.70;;;5.70;;
18695;SDS011;22617;43.690;27.956;2023-02-01T22:40:06;9.67;;;5.63;;
18695;SDS011;22617;43.690;27.956;2023-02-01T22:45:10;11.17;;;6.37;;
18695;SDS011;22617;43.690;27.956;2023-02-01T22:50:15;10.63;;;5.50;;
18695;SDS011;22617;43.690;27.956;2023-02-01T22:55:19;11.07;;;5.80;;
18695;SDS011;22617;43.690;27.956;2023-02-01T23:00:23;10.90;;;5.50;;
18695;SDS011;22617;43.690;27.956;2023-02-01T23:05:29;9.93;;;5.57;;
18695;SDS011;22617;43.690;27.956;2023-02-01T23:10:32;10.83;;;5.20;;
18695;SDS011;22617;43.690;27.956;2023-02-01T23:15:37;9.17;;;5.43;;
18695;SDS011;22617;43.690;27.956;2023-02-01T23:20:42;14.03;;;6.00;;
18695;SDS011;22617;43.690;27.956;2023-02-01T23:25:48;12.57;;;5.70;;
18695;SDS011;22617;43.690;27.956;2023-02-01T23:30:52;12.03;;;5.47;;
18695;SDS011;22617;43.690;27.956;2023-02-01T23:35:58;8.70;;;5.10;;
18695;SDS011;22617;43.690;27.956;2023-02-01T23:41:04;12.60;;;5.70;;
18695;SDS011;22617;43.690;27.956;2023-02-01T23:46:09;11.77;;;5.23;;
18695;SDS011;22617;43.690;27.956;2023-02-01T23:51:15;10.37;;;5.20;;
18695;SDS011;22617;43.690;27.956;2023-02-01T23:56:20;10.70;;;5.10;;
